Time;durP1;ratioP1;P1;durP2;ratioP2;P2;SDS_P1;SDS_P2;PMS_P1;PMS_P2;Temp;Humidity;BMP_temperature;BMP_pressure;BME280_temperature;BME280_humidity;BME280_pressure;Samples;Min_cycle;Max_cycle;Signal;HPM_P1;HPM_P2
2023/10/28 00:01:12;;;;;;;7.05;2.55;;;;;;;10.99;100.00;98619.09;5065086;28;19928;-74
2023/10/28 00:03:41;;;;;;;6.63;2.63;;;;;;;10.95;100.00;98609.69;5048723;28;20086;-74
2023/10/28 00:06:09;;;;;;;4.10;2.45;;;;;;;10.95;100.00;98612.34;5050743;28;20053;-74
2023/10/28 00:08:39;;;;;;;7.07;2.55;;;;;;;10.91;100.00;98606.41;5070327;28;20051;-74
2023/10/28 00:11:11;;;;;;;5.68;2.30;;;;;;;10.92;100.00;98615.22;5063216;28;20040;-74
2023/10/28 00:13:40;;;;;;;5.50;2.38;;;;;;;10.80;100.00;98591.38;5048585;28;20074;-75
2023/10/28 00:16:08;;;;;;;4.95;2.28;;;;;;;10.90;100.00;98612.69;5069159;28;20079;-74
2023/10/28 00:18:40;;;;;;;11.05;7.00;;;;;;;10.85;100.00;98601.63;5066086;28;20075;-74
2023/10/28 00:21:09;;;;;;;5.78;2.42;;;;;;;10.89;100.00;98609.19;5061651;28;20045;-73
2023/10/28 00:23:39;;;;;;;4.35;2.25;;;;;;;10.90;100.00;98607.38;5063420;28;20319;-74
2023/10/28 00:26:07;;;;;;;5.50;2.20;;;;;;;10.88;100.00;98607.50;5067351;28;20118;-74
2023/10/28 00:28:39;;;;;;;4.28;1.90;;;;;;;10.97;100.00;98613.06;5053314;28;20597;-75
2023/10/28 00:31:09;;;;;;;3.10;2.10;;;;;;;10.93;100.00;98614.25;5066080;28;20041;-74
2023/10/28 00:33:38;;;;;;;5.93;1.93;;;;;;;10.90;100.00;98613.53;5059594;28;20152;-74
2023/10/28 00:36:09;;;;;;;4.40;2.05;;;;;;;10.94;100.00;98608.00;5072712;28;20523;-74
2023/10/28 00:38:37;;;;;;;3.58;1.90;;;;;;;10.95;100.00;98612.34;5061537;28;20044;-73
2023/10/28 00:41:07;;;;;;;5.97;2.20;;;;;;;10.92;100.00;98604.63;5070457;28;20067;-73
2023/10/28 00:43:35;;;;;;;5.18;1.80;;;;;;;10.90;100.00;98615.31;5066023;28;20045;-72
2023/10/28 00:46:08;;;;;;;5.10;2.30;;;;;;;10.75;100.00;98600.59;5065675;28;20049;-72
2023/10/28 00:48:37;;;;;;;4.10;2.05;;;;;;;10.81;100.00;98611.59;5064695;28;20067;-74
2023/10/28 00:51:06;;;;;;;7.03;2.40;;;;;;;10.80;100.00;98611.69;5070285;28;20048;-74
2023/10/28 00:53:35;;;;;;;5.95;2.30;;;;;;;10.78;100.00;98617.09;5069427;28;20058;-75
2023/10/28 00:56:04;;;;;;;4.53;2.03;;;;;;;10.78;100.00;98619.75;5076834;28;20044;-74
2023/10/28 00:58:35;;;;;;;3.92;2.05;;;;;;;10.73;100.00;98610.47;5076454;28;20049;-74
2023/10/28 01:01:10;;;;;;;8.20;2.40;;;;;;;10.74;100.00;98607.69;5077888;28;20032;-74
2023/10/28 01:03:41;;;;;;;6.65;2.30;;;;;;;10.76;100.00;98611.09;5074172;28;20076;-73
2023/10/28 01:06:10;;;;;;;;;;;;;;;10.76;100.00;98613.72;5073601;28;20520;-74
2023/10/28 01:08:38;;;;;;;6.00;1.63;;;;;;;10.78;100.00;98611.81;5069729;28;19952;-74
2023/10/28 01:11:07;;;;;;;4.68;2.00;;;;;;;10.75;100.00;98598.81;5072406;28;20049;-73
2023/10/28 01:13:35;;;;;;;4.10;1.85;;;;;;;10.82;100.00;98615.09;5070103;28;20032;-74
2023/10/28 01:16:08;;;;;;;2.65;1.40;;;;;;;10.83;100.00;98614.13;5081266;28;20100;-74
2023/10/28 01:18:36;;;;;;;5.03;1.30;;;;;;;10.81;100.00;98608.94;5078388;28;20056;-73
2023/10/28 01:21:11;;;;;;;3.83;1.58;;;;;;;10.85;100.00;98618.34;5079017;28;20033;-73
2023/10/28 01:23:40;;;;;;;4.93;1.70;;;;;;;10.80;100.00;98607.25;5051206;28;20059;-73
2023/10/28 01:26:08;;;;;;;5.82;1.77;;;;;;;10.87;100.00;98615.56;5072493;28;20070;-73
2023/10/28 01:28:37;;;;;;;4.30;1.63;;;;;;;10.90;100.00;98615.31;5090040;28;20049;-74
2023/10/28 01:31:05;;;;;;;2.40;1.67;;;;;;;10.83;100.00;98603.53;5063254;28;20075;-74
2023/10/28 01:33:35;;;;;;;6.15;2.00;;;;;;;10.82;100.00;98607.13;5068972;28;20083;-73
2023/10/28 01:36:12;;;;;;;4.63;1.70;;;;;;;10.82;100.00;98613.28;5076980;28;20052;-74
2023/10/28 01:38:45;;;;;;;5.15;1.73;;;;;;;10.75;100.00;98595.31;5072016;28;20128;-74
2023/10/28 01:41:14;;;;;;;2.92;1.73;;;;;;;10.90;100.00;98604.72;5072457;28;20068;-73
2023/10/28 01:43:44;;;;;;;5.22;1.73;;;;;;;10.92;100.00;98599.31;5065481;28;20036;-74
2023/10/28 01:46:12;;;;;;;4.90;1.70;;;;;;;10.92;100.00;98607.25;5076618;28;20044;-73
2023/10/28 01:48:41;;;;;;;3.35;1.88;;;;;;;10.83;100.00;98603.53;5073770;28;20062;-74
2023/10/28 01:51:14;;;;;;;7.90;2.10;;;;;;;10.88;100.00;98607.50;5055136;28;20044;-74
2023/10/28 01:53:43;;;;;;;4.53;1.55;;;;;;;10.96;100.00;98604.28;5064084;28;20028;-74
2023/10/28 01:56:12;;;;;;;7.93;1.55;;;;;;;10.92;100.00;98607.25;5069517;28;20036;-74
2023/10/28 01:58:43;;;;;;;6.05;1.83;;;;;;;10.91;100.00;98606.41;5069706;28;20059;-74
2023/10/28 02:01:19;;;;;;;3.95;1.70;;;;;;;10.93;100.00;98616.91;5054403;28;20049;-75
2023/10/28 02:03:50;;;;;;;4.35;1.45;;;;;;;10.88;100.00;98610.13;5065564;28;20569;-74
2023/10/28 02:06:20;;;;;;;;;;;;;;;10.86;100.00;98614.72;5062168;28;20578;-74
2023/10/28 02:08:48;;;;;;;4.22;1.70;;;;;;;10.85;100.00;98607.75;5065069;28;19920;-74
2023/10/28 02:11:16;;;;;;;6.82;1.40;;;;;;;10.89;100.00;98613.63;5076236;28;20044;-74
2023/10/28 02:13:45;;;;;;;2.88;1.30;;;;;;;10.90;100.00;98618.81;5076115;28;20056;-74
2023/10/28 02:16:17;;;;;;;3.17;1.30;;;;;;;10.88;100.00;98620.72;5074438;28;20356;-74
2023/10/28 02:18:45;;;;;;;3.40;1.60;;;;;;;10.85;100.00;98618.34;5065720;28;20643;-74
2023/10/28 02:21:14;;;;;;;3.63;1.52;;;;;;;10.83;100.00;98624.72;5082210;28;20048;-74
2023/10/28 02:23:45;;;;;;;3.40;1.58;;;;;;;10.81;100.00;98621.34;5077656;28;20036;-74
2023/10/28 02:26:14;;;;;;;4.03;1.40;;;;;;;10.80;100.00;98623.13;5069175;28;20041;-73
2023/10/28 02:28:43;;;;;;;3.92;1.20;;;;;;;10.82;100.00;98623.88;5071918;28;20908;-73
2023/10/28 02:31:12;;;;;;;1.88;1.00;;;;;;;10.79;100.00;98623.25;5087895;28;20127;-73
2023/10/28 02:33:41;;;;;;;5.45;0.95;;;;;;;10.73;100.00;98623.69;5061274;28;20028;-73
2023/10/28 02:36:10;;;;;;;2.60;1.42;;;;;;;10.67;100.00;98619.75;5100426;28;20290;-74
2023/10/28 02:38:40;;;;;;;2.05;1.10;;;;;;;10.66;100.00;98620.69;5086414;28;20503;-73
2023/10/28 02:41:09;;;;;;;2.35;0.70;;;;;;;10.67;100.00;98632.97;5087006;28;21884;-73
2023/10/28 02:43:39;;;;;;;1.15;0.50;;;;;;;10.61;100.00;98629.94;5072561;28;20052;-73
2023/10/28 02:46:08;;;;;;;2.05;0.50;;;;;;;10.54;100.00;98645.44;5078488;28;20057;-73
2023/10/28 02:48:36;;;;;;;2.25;0.60;;;;;;;10.54;100.00;98650.72;5077326;28;20059;-74
2023/10/28 02:51:08;;;;;;;0.50;0.30;;;;;;;10.48;100.00;98637.94;5041444;28;20127;-73
2023/10/28 02:53:36;;;;;;;2.72;0.40;;;;;;;10.55;100.00;98658.53;5062030;28;20090;-74
2023/10/28 02:56:16;;;;;;;0.85;0.40;;;;;;;10.49;100.00;98644.94;5078886;28;20051;-74
2023/10/28 02:58:44;;;;;;;0.60;0.50;;;;;;;10.52;100.00;98657.94;5095341;28;20131;-74
2023/10/28 03:01:13;;;;;;;2.47;0.50;;;;;;;10.54;100.00;98661.31;5072133;28;20036;-74
2023/10/28 03:03:43;;;;;;;0.77;0.38;;;;;;;10.50;100.00;98660.69;5060417;28;20055;-74
2023/10/28 03:06:16;;;;;;;0.88;0.38;;;;;;;10.44;100.00;98663.78;5069439;28;20052;-74
2023/10/28 03:08:46;;;;;;;0.50;0.47;;;;;;;10.40;100.00;98666.75;5071598;28;20569;-74
2023/10/28 03:11:17;;;;;;;1.47;0.50;;;;;;;10.35;100.00;98671.56;5060565;28;20109;-74
2023/10/28 03:13:48;;;;;;;2.03;0.60;;;;;;;10.36;100.00;98666.16;5068035;28;20498;-74
2023/10/28 03:16:18;;;;;;;1.05;0.60;;;;;;;10.30;100.00;98663.13;5071204;28;20055;-74
2023/10/28 03:18:46;;;;;;;1.15;0.70;;;;;;;10.28;100.00;98670.31;5028352;28;20053;-74
2023/10/28 03:21:15;;;;;;;0.93;0.60;;;;;;;10.24;100.00;98668.84;5032400;28;20052;-73
2023/10/28 03:23:47;;;;;;;1.88;0.77;;;;;;;10.27;100.00;98689.78;5022012;28;20053;-73
2023/10/28 03:26:17;;;;;;;1.88;0.85;;;;;;;10.23;100.00;98683.06;5026103;28;20072;-73
2023/10/28 03:28:49;;;;;;;1.35;0.90;;;;;;;10.22;100.00;98682.22;5029537;28;20040;-73
2023/10/28 03:31:18;;;;;;;2.15;0.73;;;;;;;10.24;100.00;98684.72;5028861;28;20049;-73
2023/10/28 03:33:47;;;;;;;1.15;0.60;;;;;;;10.16;100.00;98677.31;5022875;28;20326;-74
2023/10/28 03:36:15;;;;;;;2.45;0.80;;;;;;;10.23;100.00;98685.69;5040011;28;20045;-73
2023/10/28 03:38:43;;;;;;;1.50;0.85;;;;;;;10.11;100.00;98676.78;5034776;28;20046;-73
2023/10/28 03:41:13;;;;;;;0.98;0.75;;;;;;;10.10;100.00;98691.81;5028847;28;20599;-72
2023/10/28 03:43:53;;;;;;;2.92;1.00;;;;;;;10.05;100.00;98691.31;5009595;28;20332;-72
2023/10/28 03:46:22;;;;;;;2.00;0.90;;;;;;;10.11;100.00;98687.38;5033073;28;20052;-73
2023/10/28 03:48:52;;;;;;;1.83;0.70;;;;;;;10.15;100.00;98705.56;5030309;28;20132;-73
2023/10/28 03:51:22;;;;;;;3.10;0.77;;;;;;;10.13;100.00;98699.53;5030342;28;20518;-73
2023/10/28 03:53:50;;;;;;;1.52;0.70;;;;;;;10.11;100.00;98696.16;5033509;28;20045;-73
2023/10/28 03:56:19;;;;;;;2.45;0.73;;;;;;;10.08;100.00;98698.16;5044571;28;20119;-74
2023/10/28 03:59:17;;;;;;;2.55;0.82;;;;;;;10.14;100.00;98718.91;5057366;28;20049;-73
2023/10/28 04:01:49;;;;;;;4.22;0.75;;;;;;;10.16;100.00;98722.28;5047448;28;20029;-73
2023/10/28 04:04:24;;;;;;;2.20;0.85;;;;;;;10.20;100.00;98726.44;5039746;28;20068;-74
2023/10/28 04:06:55;;;;;;;4.30;0.85;;;;;;;10.22;100.00;98728.97;5042369;28;20084;-73
2023/10/28 04:09:24;;;;;;;3.25;1.05;;;;;;;10.25;100.00;98731.38;5041939;28;20053;-73
2023/10/28 04:11:52;;;;;;;2.83;0.70;;;;;;;10.23;100.00;98730.66;5038677;28;20050;-74
2023/10/28 04:14:23;;;;;;;3.97;0.90;;;;;;;10.16;100.00;98733.72;5033364;28;20379;-74
2023/10/28 04:16:55;;;;;;;5.85;1.00;;;;;;;10.17;100.00;98727.47;5037373;28;20432;-74
2023/10/28 04:19:24;;;;;;;2.58;0.70;;;;;;;10.18;100.00;98729.19;5064337;28;20048;-75
2023/10/28 04:21:54;;;;;;;4.00;0.73;;;;;;;10.21;100.00;98727.28;5071404;28;20087;-74
2023/10/28 04:24:23;;;;;;;2.38;1.00;;;;;;;10.24;100.00;98729.69;5043095;28;20047;-73
2023/10/28 04:26:51;;;;;;;2.58;0.85;;;;;;;10.26;100.00;98738.34;5058898;28;20101;-74
2023/10/28 04:29:25;;;;;;;3.38;0.70;;;;;;;10.19;100.00;98730.88;5070835;28;20529;-75
2023/10/28 04:31:55;;;;;;;3.35;1.00;;;;;;;10.27;100.00;98730.31;5066623;28;20143;-75
2023/10/28 04:34:23;;;;;;;2.97;0.80;;;;;;;10.29;100.00;98746.94;5061224;28;20079;-73
2023/10/28 04:36:51;;;;;;;1.98;0.70;;;;;;;10.25;100.00;98745.44;5067715;28;20055;-74
2023/10/28 04:39:20;;;;;;;4.55;0.93;;;;;;;10.22;100.00;98740.41;5068539;28;20055;-74
2023/10/28 04:41:49;;;;;;;1.70;0.82;;;;;;;10.25;100.00;98734.88;5069964;28;20052;-74
2023/10/28 04:44:17;;;;;;;4.13;0.80;;;;;;;10.28;100.00;98736.44;5061594;28;20047;-74
2023/10/28 04:46:48;;;;;;;5.43;1.15;;;;;;;10.35;100.00;98735.91;5088444;28;20104;-74
2023/10/28 04:49:16;;;;;;;1.70;0.82;;;;;;;10.35;100.00;98729.78;5080149;28;20064;-74
2023/10/28 04:51:44;;;;;;;4.95;1.05;;;;;;;10.38;100.00;98724.28;5083442;28;20045;-74
2023/10/28 04:54:12;;;;;;;4.13;0.93;;;;;;;10.41;100.00;98734.59;5071177;28;21273;-74
2023/10/28 04:56:42;;;;;;;3.88;1.35;;;;;;;10.45;100.00;98730.78;5080274;28;21522;-74
2023/10/28 04:59:10;;;;;;;3.67;0.88;;;;;;;10.46;100.00;98735.13;5073839;28;20049;-75
2023/10/28 05:01:39;;;;;;;2.40;1.08;;;;;;;10.44;100.00;98724.66;5075055;28;20049;-75
2023/10/28 05:04:09;;;;;;;3.60;1.08;;;;;;;10.52;100.00;98739.97;5064119;28;20036;-75
2023/10/28 05:06:38;;;;;;;2.28;1.10;;;;;;;10.51;100.00;98735.66;5058814;28;20469;-75
2023/10/28 05:09:06;;;;;;;5.18;0.90;;;;;;;10.38;100.00;98714.53;5080054;28;20048;-75
2023/10/28 05:11:34;;;;;;;2.17;1.13;;;;;;;10.52;100.00;98726.75;5051708;28;20500;-74
2023/10/28 05:14:03;;;;;;;3.67;1.13;;;;;;;10.56;100.00;98722.91;5061972;28;20041;-74
2023/10/28 05:16:33;;;;;;;6.35;1.20;;;;;;;10.53;100.00;98733.72;5084608;28;20097;-74
2023/10/28 05:19:14;;;;;;;2.60;1.37;;;;;;;10.51;100.00;98731.19;5071729;28;20053;-74
2023/10/28 05:21:44;;;;;;;4.90;1.30;;;;;;;10.51;100.00;98730.34;5068128;28;20048;-74
2023/10/28 05:24:13;;;;;;;2.47;1.23;;;;;;;10.58;100.00;98725.44;5058009;28;20436;-74
2023/10/28 05:26:42;;;;;;;3.88;1.15;;;;;;;10.50;100.00;98716.28;5067318;28;20143;-75
2023/10/28 05:29:12;;;;;;;1.60;0.93;;;;;;;10.44;100.00;98716.72;5057549;28;20061;-75
2023/10/28 05:31:50;;;;;;;1.67;0.70;;;;;;;10.46;100.00;98716.59;5074799;28;20036;-74
2023/10/28 05:34:23;;;;;;;1.95;1.15;;;;;;;10.31;100.00;98696.56;5075347;28;20505;-74
2023/10/28 05:36:52;;;;;;;2.50;1.10;;;;;;;10.43;100.00;98722.94;5073817;28;20190;-76
2023/10/28 05:39:21;;;;;;;5.95;0.93;;;;;;;10.48;100.00;98730.56;5073231;28;20132;-74
2023/10/28 05:41:49;;;;;;;2.95;1.00;;;;;;;10.54;100.00;98730.13;5051988;28;20334;-75
2023/10/28 05:44:18;;;;;;;1.75;0.95;;;;;;;10.55;100.00;98727.34;5051899;28;20037;-75
2023/10/28 05:46:48;;;;;;;3.58;1.10;;;;;;;10.53;100.00;98724.00;5074886;28;20067;-75
2023/10/28 05:49:16;;;;;;;4.77;1.10;;;;;;;10.55;100.00;98726.50;5056054;28;20155;-74
2023/10/28 05:51:45;;;;;;;3.65;1.88;;;;;;;10.54;100.00;98733.63;5089304;28;20051;-75
2023/10/28 05:54:14;;;;;;;5.22;1.10;;;;;;;10.58;100.00;98726.28;5067477;28;20045;-75
2023/10/28 05:56:42;;;;;;;2.65;1.10;;;;;;;10.55;100.00;98723.84;5048999;28;20048;-75
2023/10/28 05:59:10;;;;;;;4.93;1.20;;;;;;;10.54;100.00;98719.53;5072854;28;20482;-76
2023/10/28 06:01:39;;;;;;;4.78;1.20;;;;;;;10.64;100.00;98736.44;5070808;28;20047;-75
2023/10/28 06:04:07;;;;;;;4.75;1.10;;;;;;;10.59;100.00;98729.78;5070610;28;21148;-75
2023/10/28 06:06:36;;;;;;;3.03;0.98;;;;;;;10.57;100.00;98737.81;5064554;28;20049;-75
2023/10/28 06:09:09;;;;;;;4.47;1.20;;;;;;;10.56;100.00;98738.78;5069847;28;20044;-78
2023/10/28 06:11:38;;;;;;;6.97;1.45;;;;;;;10.55;100.00;98737.94;5075204;28;20048;-76
2023/10/28 06:14:08;;;;;;;5.30;1.40;;;;;;;10.52;100.00;98748.78;5067677;28;20057;-74
2023/10/28 06:16:36;;;;;;;4.47;1.25;;;;;;;10.51;100.00;98746.22;5066959;28;21416;-77
2023/10/28 06:19:05;;;;;;;3.70;1.50;;;;;;;10.54;100.00;98751.31;5071916;28;20462;-76
2023/10/28 06:21:35;;;;;;;5.45;1.50;;;;;;;10.58;100.00;98751.91;5054680;28;20049;-75
2023/10/28 06:24:07;;;;;;;4.90;1.40;;;;;;;10.60;100.00;98750.84;5067369;28;20094;-78
2023/10/28 06:26:37;;;;;;;7.70;1.25;;;;;;;10.50;100.00;98731.31;5045630;28;20044;-75
2023/10/28 06:29:05;;;;;;;8.48;1.83;;;;;;;10.66;100.00;98754.84;5072325;28;20141;-76
2023/10/28 06:31:33;;;;;;;6.35;1.70;;;;;;;10.67;100.00;98767.13;5069819;28;20149;-75
2023/10/28 06:34:05;;;;;;;11.32;1.75;;;;;;;10.67;100.00;98762.69;5057188;28;20048;-76
2023/10/28 06:36:34;;;;;;;8.30;1.77;;;;;;;10.75;100.00;98770.03;5067970;28;20044;-75
2023/10/28 06:39:08;;;;;;;7.10;1.67;;;;;;;10.81;100.00;98761.66;5078140;28;20507;-76
2023/10/28 06:41:37;;;;;;;7.97;1.90;;;;;;;10.82;100.00;98764.22;5077237;28;20102;-75
2023/10/28 06:44:08;;;;;;;6.82;2.00;;;;;;;10.84;100.00;98772.03;5060880;28;20394;-75
2023/10/28 06:46:49;;;;;;;5.50;1.80;;;;;;;10.83;100.00;98783.59;5068750;28;20051;-75
2023/10/28 06:49:17;;;;;;;6.00;1.40;;;;;;;10.84;100.00;98780.81;5075139;28;20052;-75
2023/10/28 06:51:45;;;;;;;7.63;1.65;;;;;;;10.84;100.00;98782.63;5095316;28;20048;-75
2023/10/28 06:54:18;;;;;;;8.95;1.70;;;;;;;10.78;100.00;98775.97;5076380;28;20064;-76
2023/10/28 06:56:47;;;;;;;6.30;1.60;;;;;;;10.87;100.00;98790.31;5079833;28;21352;-79
2023/10/28 06:59:15;;;;;;;7.45;1.60;;;;;;;10.82;100.00;98790.69;5093214;28;20055;-76
2023/10/28 07:01:44;;;;;;;10.77;2.22;;;;;;;10.86;100.00;98800.06;5084475;28;20115;-74
2023/10/28 07:04:14;;;;;;;8.07;1.85;;;;;;;10.78;100.00;98788.38;5077928;28;20060;-77
2023/10/28 07:06:46;;;;;;;8.02;2.15;;;;;;;10.76;100.00;98795.56;5070781;28;20062;-77
2023/10/28 07:09:17;;;;;;;6.13;1.70;;;;;;;10.79;100.00;98806.78;5072180;28;20032;-76
2023/10/28 07:11:47;;;;;;;5.43;1.60;;;;;;;10.72;100.00;98800.22;5073391;28;20045;-76
2023/10/28 07:14:16;;;;;;;4.22;1.60;;;;;;;10.82;100.00;98809.22;5075272;28;20048;-77
2023/10/28 07:16:46;;;;;;;7.05;1.95;;;;;;;10.76;100.00;98800.88;5069120;28;20041;-75
2023/10/28 07:19:15;;;;;;;5.95;1.73;;;;;;;10.68;100.00;98788.19;5070078;28;20091;-78
2023/10/28 07:21:44;;;;;;;5.60;1.55;;;;;;;10.84;100.00;98802.00;5077019;28;20574;-77
2023/10/28 07:24:12;;;;;;;7.53;1.70;;;;;;;11.00;100.00;98827.38;5071863;28;20071;-76
2023/10/28 07:26:41;;;;;;;7.18;1.77;;;;;;;11.11;100.00;98827.41;5060442;28;20057;-75
2023/10/28 07:29:12;;;;;;;7.55;2.47;;;;;;;11.27;100.00;98822.66;5071097;28;20045;-77
2023/10/28 07:31:40;;;;;;;23.67;6.05;;;;;;;11.45;100.00;98817.78;5069967;28;20037;-75
2023/10/28 07:34:08;;;;;;;9.18;2.03;;;;;;;11.43;100.00;98828.50;5070076;28;20040;-75
2023/10/28 07:36:36;;;;;;;5.50;1.42;;;;;;;11.33;100.00;98826.69;5064254;28;20044;-76
2023/10/28 07:39:06;;;;;;;7.90;1.58;;;;;;;11.36;100.00;98834.38;5065493;28;20045;-76
2023/10/28 07:41:34;;;;;;;8.13;2.10;;;;;;;11.31;100.00;98836.53;5097150;28;20731;-76
2023/10/28 07:44:03;;;;;;;7.80;1.80;;;;;;;11.13;100.00;98820.19;5069810;28;20493;-75
2023/10/28 07:46:33;;;;;;;9.02;1.80;;;;;;;11.20;100.00;98834.66;5062733;28;20048;-76
2023/10/28 07:49:02;;;;;;;6.47;2.13;;;;;;;11.04;100.00;98831.47;5073611;28;20675;-75
2023/10/28 07:51:30;;;;;;;5.55;1.92;;;;;;;11.11;100.00;98845.97;5075558;28;20048;-76
2023/10/28 07:54:04;;;;;;;8.43;1.60;;;;;;;11.10;100.00;98850.41;5086516;28;20040;-75
2023/10/28 07:56:33;;;;;;;5.38;1.75;;;;;;;11.11;100.00;98853.91;5064634;28;20062;-76
2023/10/28 07:59:03;;;;;;;8.75;2.00;;;;;;;11.16;100.00;98851.78;5057074;28;20508;-77
2023/10/28 08:01:33;;;;;;;7.25;1.77;;;;;;;11.17;100.00;98858.75;5066710;28;20516;-75
2023/10/28 08:04:02;;;;;;;3.72;1.30;;;;;;;11.19;100.00;98859.47;5072541;28;20072;-75
2023/10/28 08:06:31;;;;;;;8.02;1.70;;;;;;;11.11;100.00;98859.19;5063307;28;20051;-75
2023/10/28 08:09:05;;;;;;;5.85;1.65;;;;;;;11.20;100.00;98867.31;5079980;28;20083;-75
2023/10/28 08:11:34;;;;;;;7.60;1.60;;;;;;;11.21;100.00;98855.75;5081328;28;20459;-75
2023/10/28 08:14:04;;;;;;;5.18;1.55;;;;;;;11.31;100.00;98866.53;5075374;28;20070;-75
2023/10/28 08:16:36;;;;;;;6.75;2.35;;;;;;;11.44;100.00;98872.59;5060438;28;20052;-76
2023/10/28 08:19:12;;;;;;;6.97;1.80;;;;;;;11.33;100.00;98871.72;5070977;28;20051;-76
2023/10/28 08:21:40;;;;;;;6.45;1.80;;;;;;;11.40;100.00;98879.09;5064321;28;20127;-76
2023/10/28 08:24:15;;;;;;;7.73;1.60;;;;;;;11.38;100.00;98878.34;5073032;28;20055;-75
2023/10/28 08:26:45;;;;;;;8.98;1.80;;;;;;;11.41;100.00;98882.59;5065375;28;20040;-74
2023/10/28 08:29:14;;;;;;;5.78;1.67;;;;;;;11.43;100.00;98875.38;5067848;28;20059;-76
2023/10/28 08:31:48;;;;;;;5.88;1.38;;;;;;;11.49;100.00;98872.28;5065128;28;20483;-75
2023/10/28 08:34:16;;;;;;;6.35;1.42;;;;;;;11.58;100.00;98884.81;5073387;28;20784;-76
2023/10/28 08:36:46;;;;;;;12.10;1.85;;;;;;;11.63;100.00;98884.50;5063197;28;20459;-76
2023/10/28 08:39:14;;;;;;;5.13;1.50;;;;;;;11.57;100.00;98870.72;5070532;28;20114;-76
2023/10/28 08:41:44;;;;;;;4.20;1.38;;;;;;;11.60;100.00;98886.41;5073478;28;20425;-74
2023/10/28 08:44:17;;;;;;;5.65;1.67;;;;;;;11.56;100.00;98879.63;5072082;28;20456;-75
2023/10/28 08:46:50;;;;;;;4.95;1.70;;;;;;;11.62;100.00;98888.94;5060172;28;20052;-76
2023/10/28 08:49:21;;;;;;;9.32;1.80;;;;;;;11.59;100.00;98887.38;5067688;28;20041;-74
2023/10/28 08:51:57;;;;;;;8.65;2.22;;;;;;;11.66;100.00;98881.59;5069695;28;20468;-75
2023/10/28 08:54:28;;;;;;;6.05;2.45;;;;;;;11.76;100.00;98879.97;5047187;28;20068;-76
2023/10/28 08:56:57;;;;;;;7.25;1.80;;;;;;;11.93;100.00;98887.50;5052830;28;20041;-75
2023/10/28 08:59:28;;;;;;;6.43;2.10;;;;;;;11.96;100.00;98884.63;5070364;28;20044;-75
2023/10/28 09:02:00;;;;;;;6.63;1.75;;;;;;;11.92;100.00;98891.13;5068765;28;20040;-76
2023/10/28 09:04:29;;;;;;;4.32;1.58;;;;;;;11.93;100.00;98895.47;5076189;28;20052;-75
2023/10/28 09:07:01;;;;;;;6.60;2.08;;;;;;;12.08;100.00;98890.78;5064709;28;20076;-76
2023/10/28 09:09:30;;;;;;;6.22;1.98;;;;;;;12.13;100.00;98896.56;5072806;28;20040;-76
2023/10/28 09:11:59;;;;;;;4.82;1.70;;;;;;;12.05;100.00;98875.94;5076895;28;20123;-78
2023/10/28 09:14:27;;;;;;;7.05;1.90;;;;;;;12.17;100.00;98890.91;5075826;28;20139;-75
2023/10/28 09:17:00;;;;;;;5.65;2.17;;;;;;;12.26;100.00;98902.63;5073830;28;20060;-76
2023/10/28 09:19:31;;;;;;;5.10;1.52;;;;;;;12.23;100.00;98898.41;5083198;28;20062;-74
2023/10/28 09:22:00;;;;;;;;;;;;;;;12.25;100.00;98900.94;5070656;28;20058;-76
2023/10/28 09:24:32;;;;;;;5.40;1.42;;;;;;;12.15;100.00;98905.25;5072783;28;19991;-76
2023/10/28 09:27:01;;;;;;;6.97;1.63;;;;;;;12.11;100.00;98882.59;5073147;28;20144;-75
2023/10/28 09:29:32;;;;;;;4.05;1.63;;;;;;;12.01;100.00;98858.56;5072200;28;20056;-77
2023/10/28 09:32:08;;;;;;;5.70;1.48;;;;;;;12.32;100.00;98898.66;5072650;28;20040;-76
2023/10/28 09:34:42;;;;;;;7.75;1.63;;;;;;;12.28;100.00;98892.72;5058297;28;20056;-76
2023/10/28 09:37:11;;;;;;;5.88;1.58;;;;;;;12.34;100.00;98899.38;5065176;28;20057;-77
2023/10/28 09:39:47;;;;;;;9.77;1.80;;;;;;;12.31;100.00;98889.84;5071681;28;20353;-76
2023/10/28 09:42:17;;;;;;;7.45;1.42;;;;;;;12.36;100.00;98900.94;5073528;28;20044;-77
2023/10/28 09:44:47;;;;;;;5.65;1.73;;;;;;;12.38;100.00;98895.53;5072562;28;20222;-76
2023/10/28 09:47:23;;;;;;;6.90;2.55;;;;;;;12.40;100.00;98890.94;5067620;28;20102;-76
2023/10/28 09:50:01;;;;;;;11.07;2.03;;;;;;;12.40;100.00;98901.56;5067997;28;20049;-76
2023/10/28 09:52:36;;;;;;;6.75;1.60;;;;;;;12.51;100.00;98899.75;5068381;28;20083;-76
2023/10/28 09:55:09;;;;;;;12.27;2.47;;;;;;;12.64;100.00;98911.09;5066431;28;20045;-76
2023/10/28 09:57:39;;;;;;;7.38;2.50;;;;;;;12.75;100.00;98901.44;5062274;28;20048;-76
2023/10/28 10:00:17;;;;;;;5.80;1.70;;;;;;;12.84;100.00;98898.91;5056158;28;20064;-76
2023/10/28 10:02:58;;;;;;;7.00;1.80;;;;;;;12.97;100.00;98890.78;5068987;28;20063;-75
2023/10/28 10:05:37;;;;;;;5.68;1.50;;;;;;;12.95;100.00;98896.22;5072858;28;20044;-76
2023/10/28 10:08:05;;;;;;;8.13;1.90;;;;;;;12.82;100.00;98870.75;5068074;28;20045;-77
2023/10/28 10:10:45;;;;;;;7.82;1.83;;;;;;;12.84;100.00;98892.72;5077531;28;20097;-76
2023/10/28 10:13:15;;;;;;;6.55;1.73;;;;;;;12.86;100.00;98907.59;5071954;28;20060;-76
2023/10/28 10:16:01;;;;;;;8.20;1.65;;;;;;;12.81;100.00;98906.25;5070209;28;20048;-80
2023/10/28 10:18:35;;;;;;;8.32;1.70;;;;;;;12.78;100.00;98891.41;5072417;28;20049;-75
2023/10/28 10:21:10;;;;;;;4.70;1.40;;;;;;;12.81;100.00;98900.94;5089456;28;20040;-75
2023/10/28 10:23:44;;;;;;;6.85;1.45;;;;;;;12.82;100.00;98897.31;5078712;28;20088;-76
2023/10/28 10:26:24;;;;;;;5.75;1.45;;;;;;;12.82;100.00;98914.09;5076570;28;20044;-75
2023/10/28 10:28:55;;;;;;;7.40;2.15;;;;;;;12.69;100.00;98878.88;5081754;28;20048;-76
2023/10/28 10:31:25;;;;;;;6.40;1.48;;;;;;;12.83;100.00;98897.19;5083671;28;20032;-76
2023/10/28 10:34:04;;;;;;;6.80;1.53;;;;;;;12.81;100.00;98906.25;5065926;28;20133;-76
2023/10/28 10:36:40;;;;;;;6.32;1.90;;;;;;;12.78;100.00;98903.84;5060809;28;20048;-75
2023/10/28 10:39:15;;;;;;;5.90;2.00;;;;;;;12.87;100.00;98903.13;5092778;28;20051;-76
2023/10/28 10:41:48;;;;;;;10.80;1.88;;;;;;;12.88;100.00;98902.16;5085620;28;20403;-76
2023/10/28 10:44:26;;;;;;;9.05;1.90;;;;;;;12.88;100.00;98904.81;5084124;28;20072;-76
2023/10/28 10:46:58;;;;;;;7.80;1.77;;;;;;;12.93;100.00;98898.16;5071326;28;20045;-75
2023/10/28 10:49:26;;;;;;;7.53;1.98;;;;;;;12.92;100.00;98890.28;5075383;28;20045;-75
2023/10/28 10:52:00;;;;;;;6.15;1.83;;;;;;;13.05;100.00;98892.84;5082589;28;20076;-76
2023/10/28 10:54:53;;;;;;;8.50;1.85;;;;;;;12.83;100.00;98867.97;5079013;28;20131;-75
2023/10/28 10:57:21;;;;;;;7.60;1.67;;;;;;;12.99;100.00;98889.69;5077111;28;20055;-76
2023/10/28 10:59:58;;;;;;;9.27;1.55;;;;;;;12.98;100.00;98888.00;5086079;28;20051;-76
2023/10/28 11:02:32;;;;;;;6.68;1.85;;;;;;;13.09;100.00;98894.25;5071503;28;20061;-75
2023/10/28 11:05:03;;;;;;;8.93;2.83;;;;;;;13.11;100.00;98895.81;5090590;28;20086;-77
2023/10/28 11:07:38;;;;;;;8.43;1.52;;;;;;;13.18;100.00;98893.56;5074665;28;20051;-76
2023/10/28 11:10:10;;;;;;;7.32;1.95;;;;;;;12.90;100.00;98861.22;5094202;28;20040;-75
2023/10/28 11:12:40;;;;;;;7.00;1.90;;;;;;;12.88;100.00;98881.75;5083005;28;20048;-77
2023/10/28 11:15:14;;;;;;;8.93;1.83;;;;;;;12.82;100.00;98892.84;5073804;28;20163;-76
2023/10/28 11:17:43;;;;;;;6.10;1.52;;;;;;;12.71;100.00;98882.25;5084572;28;20048;-77
2023/10/28 11:20:20;;;;;;;10.90;1.92;;;;;;;12.67;100.00;98875.47;5081007;28;20048;-75
2023/10/28 11:22:53;;;;;;;9.70;1.80;;;;;;;12.77;100.00;98884.41;5089426;28;20058;-76
2023/10/28 11:25:31;;;;;;;7.32;2.05;;;;;;;12.78;100.00;98891.41;5084235;28;20083;-77
2023/10/28 11:28:07;;;;;;;7.95;1.65;;;;;;;12.85;100.00;98887.31;5070141;28;20048;-76
2023/10/28 11:30:37;;;;;;;8.82;2.05;;;;;;;13.00;100.00;98885.22;5093355;28;20048;-76
2023/10/28 11:33:08;;;;;;;10.68;2.25;;;;;;;12.98;100.00;98871.22;5065043;28;20037;-76
2023/10/28 11:35:40;;;;;;;11.05;1.45;;;;;;;13.03;100.00;98873.50;5076078;28;20048;-76
2023/10/28 11:38:10;;;;;;;8.82;2.30;;;;;;;13.09;100.00;98883.63;5066550;28;20108;-74
2023/10/28 11:40:39;;;;;;;7.85;2.40;;;;;;;13.19;100.00;98879.28;5071432;28;20064;-75
2023/10/28 11:43:06;;;;;;;10.98;1.73;;;;;;;13.40;100.00;98887.31;5080095;28;20550;-75